AQQ10 IFIS: Internet Flight Information System
logo dgac
Viernes 12 de Abril del 2024
Buscar por aerodromo o helipuerto
Ingrese nombre de aeródromo, localidad o designador OACI:
METAR del 12-04-2024 a las 12:00 UTC
Para mayor información visite www.meteochile.gob.cl
METAR SCFA 121200Z 10002KT 9999 BKN024 17/15 Q1014 NOSIG
Viento: dirección 100 grados, velocidad 2 nudos
Visibilidad: 10 km o más
Nubes: Nublado a 2400 pies sobre el nivel del aeródromo
Temperatura: 17 °C
Rocío: 15 °C
Humedad_relativa: 88%
Presión: 1014 hPa
No se esperan cambios significativos en las próximas 2 horas
METAR del 12-04-2024 a las 12:00 UTC
Para mayor información visite www.meteochile.gob.cl
METAR SCFA 121200Z 10002KT 9999 BKN024 17/15 Q1014 NOSIG
Viento: dirección 100 grados, velocidad 2 nudos
Visibilidad: 10 km o más
Nubes: Nublado a 2400 pies sobre el nivel del aeródromo
Temperatura: 17 °C
Rocío: 15 °C
Humedad_relativa: 88%
Presión: 1014 hPa
No se esperan cambios significativos en las próximas 2 horas
METAR del 12-04-2024 a las 11:00 UTC
Para mayor información visite www.meteochile.gob.cl
METAR SCFA 121100Z 24002KT 9999 SCT021 17/13 Q1014 NOSIG
Viento: dirección 240 grados, velocidad 2 nudos
Visibilidad: 10 km o más
Nubes: Nubosidad parcial a 2100 pies sobre el nivel del aeródromo
Temperatura: 17 °C
Rocío: 13 °C
Humedad_relativa: 77%
Presión: 1014 hPa
No se esperan cambios significativos en las próximas 2 horas
METAR del 12-04-2024 a las 10:00 UTC
Para mayor información visite www.meteochile.gob.cl
METAR SCFA 121000Z 36004KT 9999 OVC021 17/13 Q1013 NOSIG
Viento: dirección 360 grados, velocidad 4 nudos
Visibilidad: 10 km o más
Nubes: Cubierto a 2100 pies sobre el nivel del aeródromo
Temperatura: 17 °C
Rocío: 13 °C
Humedad_relativa: 77%
Presión: 1013 hPa
No se esperan cambios significativos en las próximas 2 horas
METAR del 12-04-2024 a las 09:00 UTC
Para mayor información visite www.meteochile.gob.cl
METAR SCFA 120900Z 00000KT 9999 BKN020 16/12 Q1013 NOSIG
Visibilidad: 10 km o más
Nubes: Nublado a 2000 pies sobre el nivel del aeródromo
Temperatura: 16 °C
Rocío: 12 °C
Humedad_relativa: 77%
Presión: 1013 hPa
No se esperan cambios significativos en las próximas 2 horas
METAR del 12-04-2024 a las 08:00 UTC
Para mayor información visite www.meteochile.gob.cl
METAR SCFA 120800Z 08002KT CAVOK 17/12 Q1013 NOSIG
Viento: dirección 080 grados, velocidad 2 nudos
Visibilidad: 10 km o más,
    sin nubes bajo los 5.000 pies o bajo del MSA (Mínimo de Seguridad del Aeródromo),
    sin cumulonimbus, y sin fenómenos de tiempo significativo en el aeródromo o alrededores
Temperatura: 17 °C
Rocío: 12 °C
Humedad_relativa: 72%
Presión: 1013 hPa
No se esperan cambios significativos en las próximas 2 horas
METAR del 12-04-2024 a las 07:00 UTC
Para mayor información visite www.meteochile.gob.cl
METAR SCFA 120700Z 06002KT 9999 SCT019 17/13 Q1014 NOSIG
Viento: dirección 060 grados, velocidad 2 nudos
Visibilidad: 10 km o más
Nubes: Nubosidad parcial a 1900 pies sobre el nivel del aeródromo
Temperatura: 17 °C
Rocío: 13 °C
Humedad_relativa: 77%
Presión: 1014 hPa
No se esperan cambios significativos en las próximas 2 horas
METAR del 12-04-2024 a las 06:00 UTC
Para mayor información visite www.meteochile.gob.cl
METAR SCFA 120600Z 04002KT 9999 FEW020 16/13 Q1014 NOSIG
Viento: dirección 040 grados, velocidad 2 nudos
Visibilidad: 10 km o más
Nubes: Escasa nubosidad a 2000 pies sobre el nivel del aeródromo
Temperatura: 16 °C
Rocío: 13 °C
Humedad_relativa: 82%
Presión: 1014 hPa
No se esperan cambios significativos en las próximas 2 horas
METAR del 12-04-2024 a las 05:00 UTC
Para mayor información visite www.meteochile.gob.cl
METAR SCFA 120500Z 33002KT CAVOK 17/14 Q1015 NOSIG
Viento: dirección 330 grados, velocidad 2 nudos
Visibilidad: 10 km o más,
    sin nubes bajo los 5.000 pies o bajo del MSA (Mínimo de Seguridad del Aeródromo),
    sin cumulonimbus, y sin fenómenos de tiempo significativo en el aeródromo o alrededores
Temperatura: 17 °C
Rocío: 14 °C
Humedad_relativa: 83%
Presión: 1015 hPa
No se esperan cambios significativos en las próximas 2 horas
METAR del 12-04-2024 a las 04:00 UTC
Para mayor información visite www.meteochile.gob.cl
METAR SCFA 120400Z 21003KT CAVOK 17/14 Q1015 NOSIG
Viento: dirección 210 grados, velocidad 3 nudos
Visibilidad: 10 km o más,
    sin nubes bajo los 5.000 pies o bajo del MSA (Mínimo de Seguridad del Aeródromo),
    sin cumulonimbus, y sin fenómenos de tiempo significativo en el aeródromo o alrededores
Temperatura: 17 °C
Rocío: 14 °C
Humedad_relativa: 83%
Presión: 1015 hPa
No se esperan cambios significativos en las próximas 2 horas